createdAt,value
2023-03-06T00:00:10.362Z,94237.00
2023-03-06T00:01:10.386Z,94237.00
2023-03-06T00:02:10.412Z,94235.00
2023-03-06T00:03:10.463Z,94235.00
2023-03-06T00:04:10.635Z,94235.00
2023-03-06T00:05:10.538Z,94237.00
2023-03-06T00:06:10.672Z,94235.00
2023-03-06T00:07:10.611Z,94235.00
2023-03-06T00:08:10.644Z,94231.00
2023-03-06T00:09:10.708Z,94235.00
2023-03-06T00:10:10.750Z,94235.00
2023-03-06T00:11:10.769Z,94235.00
2023-03-06T00:12:10.802Z,94237.00
2023-03-06T00:13:10.843Z,94237.00
2023-03-06T00:14:10.873Z,94237.00
2023-03-06T00:15:10.909Z,94235.00
2023-03-06T00:16:10.974Z,94233.00
2023-03-06T00:17:10.997Z,94235.00
2023-03-06T00:18:11.018Z,94235.00
2023-03-06T00:19:11.055Z,94233.00
2023-03-06T00:20:11.101Z,94233.00
2023-03-06T00:21:11.141Z,94229.00
2023-03-06T00:22:11.157Z,94231.00
2023-03-06T00:23:11.167Z,94231.00
2023-03-06T00:24:11.228Z,94227.00
2023-03-06T00:25:11.234Z,94231.00
2023-03-06T00:26:11.270Z,94229.00
2023-03-06T00:27:11.331Z,94227.00
2023-03-06T00:28:11.371Z,94227.00
2023-03-06T00:29:11.390Z,94223.00
2023-03-06T00:31:11.461Z,94223.00
2023-03-06T00:32:11.542Z,94221.00
2023-03-06T00:34:30.306Z,94225.00
2023-03-06T00:35:30.322Z,94223.00
2023-03-06T00:36:30.273Z,94221.00
2023-03-06T00:37:30.266Z,94221.00
2023-03-06T00:38:30.228Z,94221.00
2023-03-06T00:39:30.216Z,94223.00
2023-03-06T00:40:30.221Z,94219.00
2023-03-06T00:41:30.214Z,94221.00
2023-03-06T00:42:30.197Z,94217.00
2023-03-06T00:43:30.192Z,94217.00
2023-03-06T00:44:30.174Z,94217.00
2023-03-06T00:45:30.285Z,94215.00
2023-03-06T00:46:30.113Z,94217.00
2023-03-06T00:47:30.128Z,94213.00
2023-03-06T00:48:30.135Z,94211.00
2023-03-06T00:49:30.100Z,94211.00
2023-03-06T00:50:30.109Z,94211.00
2023-03-06T00:51:30.080Z,94211.00
2023-03-06T00:52:30.095Z,94210.00
2023-03-06T00:53:30.062Z,94206.00
2023-03-06T00:54:30.064Z,94206.00
2023-03-06T00:55:30.050Z,94204.00
2023-03-06T00:56:30.032Z,94204.00
2023-03-06T00:57:30.015Z,94204.00
2023-03-06T00:58:30.018Z,94204.00
2023-03-06T00:59:30.010Z,94204.00
2023-03-06T01:00:29.986Z,94204.00
2023-03-06T01:01:29.977Z,94204.00
2023-03-06T01:02:30.032Z,94200.00
2023-03-06T01:03:29.888Z,94200.00
2023-03-06T01:04:29.937Z,94202.00
2023-03-06T01:05:29.906Z,94198.00
2023-03-06T01:06:29.872Z,94196.00
2023-03-06T01:07:29.820Z,94196.00
2023-03-06T01:08:29.829Z,94196.00
2023-03-06T01:16:29.754Z,94182.00
2023-03-06T01:17:29.778Z,94182.00
2023-03-06T01:18:29.695Z,94180.00
2023-03-06T01:19:29.697Z,94176.00
2023-03-06T01:20:29.696Z,94176.00
2023-03-06T01:21:29.658Z,94176.00
2023-03-06T01:22:29.664Z,94174.00
2023-03-06T01:23:29.633Z,94174.00
2023-03-06T01:24:29.700Z,94174.00
2023-03-06T01:25:29.711Z,94174.00
2023-03-06T01:26:29.730Z,94170.00
2023-03-06T01:27:29.767Z,94170.00
2023-03-06T01:28:29.798Z,94168.00
2023-03-06T01:29:29.832Z,94164.00
2023-03-06T01:42:32.078Z,94155.00
2023-03-06T01:49:30.469Z,94149.00
2023-03-06T01:51:30.556Z,94141.00
2023-03-06T01:54:30.662Z,94137.00
2023-03-06T02:15:31.336Z,94104.00
2023-03-06T02:16:31.400Z,94102.00
2023-03-06T02:24:31.586Z,94096.00
2023-03-06T02:25:31.612Z,94094.00
2023-03-06T02:26:31.652Z,94096.00
2023-03-06T02:27:31.663Z,94094.00
2023-03-06T02:28:31.669Z,94092.00
2023-03-06T02:29:31.656Z,94088.00
2023-03-06T02:30:31.677Z,94088.00
2023-03-06T02:31:31.650Z,94088.00
2023-03-06T02:32:31.719Z,94084.00
2023-03-06T02:33:31.734Z,94086.00
2023-03-06T02:34:31.702Z,94084.00
2023-03-06T02:35:31.729Z,94082.00
2023-03-06T02:36:31.726Z,94080.00
2023-03-06T02:37:31.686Z,94080.00
2023-03-06T02:38:31.715Z,94076.00
2023-03-06T02:39:31.722Z,94078.00
2023-03-06T02:40:31.712Z,94078.00
2023-03-06T02:41:31.703Z,94078.00
2023-03-06T02:42:31.694Z,94076.00
2023-03-06T02:43:31.742Z,94074.00
2023-03-06T02:44:31.716Z,94074.00
2023-03-06T02:45:31.719Z,94070.00
2023-03-06T02:46:31.757Z,94070.00
2023-03-06T02:47:31.707Z,94066.00
2023-03-06T02:48:31.697Z,94064.00
2023-03-06T02:49:31.672Z,94064.00
2023-03-06T02:50:31.774Z,94066.00
2023-03-06T02:51:31.676Z,94066.00
2023-03-06T02:52:31.659Z,94066.00
2023-03-06T02:53:31.689Z,94068.00
2023-03-06T02:54:31.664Z,94064.00
2023-03-06T02:55:31.713Z,94064.00
2023-03-06T02:56:31.723Z,94059.00
2023-03-06T02:57:31.724Z,94057.00
2023-03-06T02:58:31.763Z,94055.00
2023-03-06T02:59:31.745Z,94057.00
2023-03-06T03:00:31.812Z,94053.00
2023-03-06T03:01:31.871Z,94051.00
2023-03-06T03:02:31.826Z,94049.00
2023-03-06T03:03:31.877Z,94047.00
2023-03-06T03:04:31.894Z,94047.00
2023-03-06T03:05:31.874Z,94045.00
2023-03-06T03:06:31.872Z,94047.00
2023-03-06T03:07:31.862Z,94047.00
2023-03-06T03:08:31.880Z,94045.00
2023-03-06T03:09:31.870Z,94041.00
2023-03-06T03:10:31.867Z,94043.00
2023-03-06T03:11:31.846Z,94041.00
2023-03-06T03:12:31.839Z,94039.00
2023-03-06T03:13:31.847Z,94041.00
2023-03-06T03:14:31.856Z,94039.00
2023-03-06T03:15:31.859Z,94037.00
2023-03-06T03:16:31.854Z,94039.00
2023-03-06T03:17:31.867Z,94037.00
2023-03-06T03:18:31.844Z,94035.00
2023-03-06T03:19:31.858Z,94035.00
2023-03-06T03:20:31.898Z,94033.00
2023-03-06T03:21:31.881Z,94031.00
2023-03-06T03:22:31.891Z,94029.00
2023-03-06T03:23:31.900Z,94033.00
2023-03-06T03:24:31.954Z,94031.00
2023-03-06T03:25:31.931Z,94031.00
2023-03-06T03:26:31.920Z,94027.00
2023-03-06T03:27:31.927Z,94023.00
2023-03-06T03:28:31.913Z,94023.00
2023-03-06T03:29:31.902Z,94021.00
2023-03-06T03:30:31.908Z,94023.00
2023-03-06T03:31:31.975Z,94023.00
2023-03-06T03:32:31.955Z,94021.00
2023-03-06T03:33:31.937Z,94019.00
2023-03-06T03:34:31.922Z,94017.00
2023-03-06T03:35:31.985Z,94017.00
2023-03-06T03:36:31.949Z,94017.00
2023-03-06T03:37:31.976Z,94016.00
2023-03-06T03:38:32.011Z,94014.00
2023-03-06T03:39:32.033Z,94012.00
2023-03-06T03:40:31.999Z,94014.00
2023-03-06T03:41:32.034Z,94008.00
2023-03-06T03:42:32.045Z,94008.00
2023-03-06T03:43:32.064Z,94004.00
2023-03-06T03:44:32.040Z,94002.00
2023-03-06T03:45:32.077Z,94000.00
2023-03-06T03:46:32.168Z,94000.00
2023-03-06T03:47:32.086Z,94000.00
2023-03-06T03:48:32.089Z,93996.00
2023-03-06T03:49:32.127Z,93994.00
2023-03-06T03:50:32.093Z,93992.00
2023-03-06T03:51:32.095Z,93994.00
2023-03-06T03:52:32.126Z,93994.00
2023-03-06T03:53:32.122Z,93992.00
2023-03-06T03:54:32.069Z,93990.00
2023-03-06T03:55:32.089Z,93990.00
2023-03-06T03:56:32.080Z,93988.00
2023-03-06T03:57:32.083Z,93986.00
2023-03-06T03:58:32.080Z,93986.00
2023-03-06T03:59:32.076Z,93988.00
2023-03-06T04:00:32.076Z,93986.00
2023-03-06T04:01:32.080Z,93986.00
2023-03-06T04:02:32.052Z,93982.00
2023-03-06T04:03:32.044Z,93982.00
2023-03-06T04:04:32.131Z,93980.00
2023-03-06T04:05:32.048Z,93978.00
2023-03-06T04:06:32.045Z,93972.00
2023-03-06T04:07:32.035Z,93970.00
2023-03-06T04:08:32.069Z,93969.00
2023-03-06T04:09:32.077Z,93969.00
2023-03-06T04:10:32.081Z,93969.00
2023-03-06T04:11:32.126Z,93967.00
2023-03-06T04:12:32.059Z,93967.00
2023-03-06T04:13:32.062Z,93967.00
2023-03-06T04:14:32.069Z,93969.00
2023-03-06T04:15:32.083Z,93965.00
2023-03-06T04:16:32.095Z,93969.00
2023-03-06T04:17:32.087Z,93965.00
2023-03-06T04:18:32.101Z,93967.00
2023-03-06T04:19:32.107Z,93961.00
2023-03-06T04:20:32.112Z,93961.00
2023-03-06T04:21:32.081Z,93961.00
2023-03-06T04:22:32.132Z,93957.00
2023-03-06T04:23:32.141Z,93957.00
2023-03-06T04:24:32.117Z,93955.00
2023-03-06T04:25:32.161Z,93955.00
2023-03-06T04:26:32.223Z,93953.00
2023-03-06T04:27:32.107Z,93955.00
2023-03-06T04:28:32.109Z,93953.00
2023-03-06T04:29:32.200Z,93955.00
2023-03-06T04:30:32.075Z,93955.00
2023-03-06T04:31:32.142Z,93955.00
2023-03-06T04:32:32.118Z,93953.00
2023-03-06T04:33:32.098Z,93953.00
2023-03-06T04:34:32.127Z,93951.00
2023-03-06T04:35:32.151Z,93947.00
2023-03-06T04:36:32.091Z,93947.00
2023-03-06T04:37:32.090Z,93943.00
2023-03-06T04:38:32.117Z,93943.00
2023-03-06T04:39:32.083Z,93943.00
2023-03-06T04:40:32.112Z,93943.00
2023-03-06T04:41:32.132Z,93943.00
2023-03-06T04:42:32.106Z,93943.00
2023-03-06T04:43:32.133Z,93943.00
2023-03-06T04:44:32.096Z,93943.00
2023-03-06T04:45:32.135Z,93943.00
2023-03-06T04:46:32.136Z,93943.00
2023-03-06T04:47:32.146Z,93939.00
2023-03-06T04:48:32.138Z,93939.00
2023-03-06T04:49:32.141Z,93941.00
2023-03-06T04:50:32.112Z,93939.00
2023-03-06T04:51:32.123Z,93941.00
2023-03-06T04:52:32.122Z,93939.00
2023-03-06T04:53:32.140Z,93941.00
2023-03-06T04:54:32.155Z,93941.00
2023-03-06T04:55:32.133Z,93939.00
2023-03-06T04:56:32.118Z,93939.00
2023-03-06T04:57:32.137Z,93937.00
2023-03-06T04:58:32.166Z,93933.00
2023-03-06T05:00:32.158Z,93935.00
2023-03-06T05:01:32.179Z,93933.00
2023-03-06T05:02:32.219Z,93933.00
2023-03-06T05:03:32.188Z,93933.00
2023-03-06T05:04:32.201Z,93931.00
2023-03-06T05:05:32.212Z,93929.00
2023-03-06T05:08:32.199Z,93929.00
2023-03-06T05:09:32.214Z,93929.00
2023-03-06T05:10:32.226Z,93933.00
2023-03-06T05:11:32.229Z,93933.00
2023-03-06T05:12:32.233Z,93929.00
2023-03-06T05:14:32.243Z,93925.00
2023-03-06T05:15:32.238Z,93925.00
2023-03-06T05:16:32.237Z,93925.00
2023-03-06T05:17:32.230Z,93925.00
2023-03-06T05:18:32.208Z,93921.00
2023-03-06T05:19:32.200Z,93919.00
2023-03-06T05:20:32.222Z,93923.00
2023-03-06T05:21:32.253Z,93921.00
2023-03-06T05:22:32.268Z,93917.00
2023-03-06T05:23:32.230Z,93915.00
2023-03-06T05:24:32.281Z,93919.00
2023-03-06T05:25:32.306Z,93917.00
2023-03-06T05:26:32.293Z,93921.00
2023-03-06T05:27:32.332Z,93919.00
2023-03-06T05:28:32.375Z,93919.00
2023-03-06T05:29:32.384Z,93919.00
2023-03-06T05:30:32.579Z,93915.00
2023-03-06T05:31:32.488Z,93915.00
2023-03-06T05:32:35.378Z,93917.00
2023-03-06T05:33:32.546Z,93919.00
2023-03-06T05:34:32.506Z,93917.00
2023-03-06T05:35:32.548Z,93917.00
2023-03-06T05:36:32.470Z,93915.00
2023-03-06T05:37:32.514Z,93912.00
2023-03-06T05:38:32.488Z,93912.00
2023-03-06T05:39:32.457Z,93917.00
2023-03-06T05:40:32.467Z,93917.00
2023-03-06T05:41:32.436Z,93917.00
2023-03-06T05:42:32.446Z,93917.00
2023-03-06T05:43:32.418Z,93914.00
2023-03-06T05:44:32.422Z,93914.00
2023-03-06T05:45:32.454Z,93915.00
2023-03-06T05:46:32.357Z,93917.00
2023-03-06T05:47:32.375Z,93919.00
2023-03-06T05:48:32.344Z,93917.00
2023-03-06T05:49:32.304Z,93917.00
2023-03-06T05:50:32.321Z,93915.00
2023-03-06T05:51:32.312Z,93917.00
2023-03-06T05:52:32.308Z,93915.00
2023-03-06T05:54:32.256Z,93915.00
2023-03-06T05:55:32.261Z,93915.00
2023-03-06T05:56:32.227Z,93915.00
2023-03-06T05:57:32.197Z,93915.00
2023-03-06T05:58:32.192Z,93917.00
2023-03-06T05:59:32.186Z,93915.00
2023-03-06T06:00:32.155Z,93915.00
2023-03-06T06:01:39.145Z,93915.00
2023-03-06T06:02:32.157Z,93914.00
2023-03-06T06:03:32.179Z,93914.00
2023-03-06T06:04:32.126Z,93915.00
2023-03-06T06:05:32.128Z,93917.00
2023-03-06T06:06:32.083Z,93917.00
2023-03-06T06:07:32.072Z,93917.00
2023-03-06T06:08:32.087Z,93915.00
2023-03-06T06:09:32.150Z,93919.00
2023-03-06T06:10:33.066Z,93921.00
2023-03-06T06:11:32.012Z,93919.00
2023-03-06T06:12:32.085Z,93923.00
2023-03-06T06:13:32.068Z,93923.00
2023-03-06T06:14:31.952Z,93921.00
2023-03-06T06:15:32.022Z,93925.00
2023-03-06T06:16:31.981Z,93925.00
2023-03-06T06:17:31.978Z,93923.00
2023-03-06T06:18:31.886Z,93927.00
2023-03-06T06:19:31.842Z,93927.00
2023-03-06T06:20:31.872Z,93927.00
2023-03-06T06:21:31.806Z,93929.00
2023-03-06T06:22:31.778Z,93927.00
2023-03-06T06:23:31.761Z,93925.00
2023-03-06T06:24:31.726Z,93925.00
2023-03-06T06:25:31.751Z,93921.00
2023-03-06T06:26:31.784Z,93925.00
2023-03-06T06:27:31.777Z,93923.00
2023-03-06T06:28:31.780Z,93925.00
2023-03-06T06:29:31.802Z,93925.00
2023-03-06T06:30:31.810Z,93923.00
2023-03-06T06:31:31.877Z,93925.00
2023-03-06T06:32:31.866Z,93929.00
2023-03-06T06:33:31.832Z,93929.00
2023-03-06T06:34:31.794Z,93931.00
2023-03-06T06:35:31.847Z,93931.00
2023-03-06T06:36:31.806Z,93927.00
2023-03-06T06:37:31.822Z,93925.00
2023-03-06T06:38:31.800Z,93927.00
2023-03-06T06:39:31.823Z,93929.00
2023-03-06T06:40:31.794Z,93929.00
2023-03-06T06:41:46.573Z,93929.00
2023-03-06T06:42:39.004Z,93927.00
2023-03-06T06:43:32.718Z,93923.00
2023-03-06T06:44:31.728Z,93929.00
2023-03-06T06:45:31.706Z,93927.00
2023-03-06T06:47:20.888Z,93925.00
2023-03-06T06:47:32.713Z,93929.00
2023-03-06T06:48:31.640Z,93931.00
2023-03-06T06:49:31.614Z,93927.00
2023-03-06T06:50:31.603Z,93925.00
2023-03-06T06:51:31.563Z,93929.00
2023-03-06T06:52:31.549Z,93927.00
2023-03-06T06:53:31.508Z,93927.00
2023-03-06T06:54:31.443Z,93931.00
2023-03-06T06:55:31.427Z,93929.00
2023-03-06T06:56:31.382Z,93931.00
2023-03-06T06:57:31.364Z,93931.00
2023-03-06T06:58:31.322Z,93931.00
2023-03-06T06:59:32.105Z,93933.00
2023-03-06T07:00:31.265Z,93931.00
2023-03-06T07:01:31.303Z,93933.00
2023-03-06T07:02:31.202Z,93933.00
2023-03-06T07:03:31.192Z,93929.00
2023-03-06T07:04:31.134Z,93929.00
2023-03-06T07:05:31.138Z,93931.00
2023-03-06T07:06:31.135Z,93933.00
2023-03-06T07:07:31.071Z,93933.00
2023-03-06T07:08:31.026Z,93931.00
2023-03-06T07:09:31.030Z,93933.00
2023-03-06T07:10:30.954Z,93931.00
2023-03-06T07:11:31.150Z,93929.00
2023-03-06T07:12:30.906Z,93929.00
2023-03-06T07:13:30.879Z,93929.00
2023-03-06T07:14:30.836Z,93929.00
2023-03-06T07:15:30.768Z,93929.00
2023-03-06T07:16:30.747Z,93931.00
2023-03-06T07:17:30.724Z,93931.00
2023-03-06T07:18:30.683Z,93929.00
2023-03-06T07:19:30.623Z,93929.00
2023-03-06T07:20:30.613Z,93929.00
2023-03-06T07:21:30.617Z,93931.00
2023-03-06T07:22:38.727Z,93933.00
2023-03-06T07:23:31.501Z,93933.00
2023-03-06T07:24:30.506Z,93931.00
2023-03-06T07:25:30.476Z,93933.00
2023-03-06T07:26:32.088Z,93935.00
2023-03-06T07:27:30.424Z,93933.00
2023-03-06T07:28:33.694Z,93931.00
2023-03-06T07:29:31.296Z,93935.00
2023-03-06T07:30:30.264Z,93939.00
2023-03-06T07:31:30.298Z,93941.00
2023-03-06T07:32:30.262Z,93941.00
2023-03-06T07:33:30.114Z,93939.00
2023-03-06T07:34:30.075Z,93937.00
2023-03-06T07:35:30.108Z,93937.00
2023-03-06T07:36:30.019Z,93939.00
2023-03-06T07:37:30.039Z,93939.00
2023-03-06T07:38:29.955Z,93941.00
2023-03-06T07:39:30.070Z,93945.00
2023-03-06T07:40:29.857Z,93945.00
2023-03-06T07:41:30.241Z,93949.00
2023-03-06T07:42:29.787Z,93947.00
2023-03-06T07:43:29.766Z,93951.00
2023-03-06T07:44:29.709Z,93953.00
2023-03-06T07:45:29.621Z,93951.00
2023-03-06T07:46:29.655Z,93953.00
2023-03-06T07:47:29.702Z,93949.00
2023-03-06T07:48:29.543Z,93951.00
2023-03-06T07:49:29.559Z,93951.00
2023-03-06T07:50:30.159Z,93949.00
2023-03-06T07:51:29.423Z,93947.00
2023-03-06T07:52:29.690Z,93951.00
2023-03-06T07:53:29.430Z,93953.00
2023-03-06T07:54:29.367Z,93953.00
2023-03-06T07:55:29.335Z,93959.00
2023-03-06T07:56:29.392Z,93957.00
2023-03-06T07:57:29.674Z,93955.00
2023-03-06T07:58:29.326Z,93953.00
2023-03-06T07:59:29.271Z,93955.00
2023-03-06T08:00:29.239Z,93955.00
2023-03-06T08:01:29.253Z,93955.00
2023-03-06T08:02:29.186Z,93953.00
2023-03-06T08:03:29.207Z,93953.00
2023-03-06T08:04:30.233Z,93953.00
2023-03-06T08:05:29.121Z,93951.00
2023-03-06T08:06:29.124Z,93957.00
2023-03-06T08:07:29.199Z,93959.00
2023-03-06T08:08:29.029Z,93959.00
2023-03-06T08:09:29.024Z,93957.00
2023-03-06T08:10:28.963Z,93955.00
2023-03-06T08:11:28.920Z,93953.00
2023-03-06T08:12:29.238Z,93953.00
2023-03-06T08:13:28.831Z,93951.00
2023-03-06T08:14:28.811Z,93953.00
2023-03-06T08:15:28.758Z,93953.00
2023-03-06T08:16:28.726Z,93951.00
2023-03-06T08:17:28.668Z,93953.00
2023-03-06T08:18:28.657Z,93951.00
2023-03-06T08:19:28.563Z,93951.00
2023-03-06T08:20:28.491Z,93951.00
2023-03-06T08:21:29.045Z,93951.00
2023-03-06T08:22:29.405Z,93947.00
2023-03-06T08:23:28.380Z,93949.00
2023-03-06T08:24:28.354Z,93951.00
2023-03-06T08:25:28.338Z,93947.00
2023-03-06T08:26:28.368Z,93947.00
2023-03-06T08:27:29.215Z,93945.00
2023-03-06T08:28:28.248Z,93945.00
2023-03-06T08:29:28.114Z,93949.00
2023-03-06T08:30:28.086Z,93949.00
2023-03-06T08:31:28.076Z,93951.00
2023-03-06T08:32:28.276Z,93953.00
2023-03-06T08:33:27.967Z,93953.00
2023-03-06T08:34:27.937Z,93953.00
2023-03-06T08:35:27.983Z,93953.00
2023-03-06T08:37:28.231Z,93949.00
2023-03-06T08:38:27.733Z,93951.00
2023-03-06T08:39:27.718Z,93953.00
2023-03-06T08:40:27.706Z,93949.00
2023-03-06T08:41:27.694Z,93947.00
2023-03-06T08:42:27.718Z,93947.00
2023-03-06T08:43:27.590Z,93949.00
2023-03-06T08:44:27.570Z,93949.00
2023-03-06T08:45:27.556Z,93945.00
2023-03-06T08:46:27.616Z,93951.00
2023-03-06T08:47:27.736Z,93951.00
2023-03-06T08:48:27.552Z,93953.00
2023-03-06T08:49:27.548Z,93953.00
2023-03-06T08:50:27.585Z,93955.00
2023-03-06T08:51:27.584Z,93953.00
2023-03-06T08:52:27.610Z,93955.00
2023-03-06T08:53:41.630Z,93955.00
2023-03-06T08:54:28.549Z,93953.00
2023-03-06T09:01:28.269Z,93951.00
2023-03-06T09:03:27.216Z,93949.00
2023-03-06T09:04:27.200Z,93947.00
2023-03-06T09:05:27.175Z,93949.00
2023-03-06T09:06:27.121Z,93945.00
2023-03-06T09:07:27.051Z,93947.00
2023-03-06T09:08:27.052Z,93951.00
2023-03-06T09:09:27.001Z,93949.00
2023-03-06T09:10:27.044Z,93949.00
2023-03-06T09:11:26.957Z,93945.00
2023-03-06T09:12:28.083Z,93945.00
2023-03-06T09:13:26.910Z,93945.00
2023-03-06T09:14:26.895Z,93945.00
2023-03-06T09:15:26.851Z,93943.00
2023-03-06T09:16:26.835Z,93943.00
2023-03-06T09:17:26.742Z,93937.00
2023-03-06T09:18:26.702Z,93937.00
2023-03-06T09:19:26.705Z,93941.00
2023-03-06T09:20:26.645Z,93937.00
2023-03-06T09:21:26.608Z,93937.00
2023-03-06T09:22:26.548Z,93939.00
2023-03-06T09:23:26.744Z,93939.00
2023-03-06T09:24:26.479Z,93941.00
2023-03-06T09:25:26.503Z,93941.00
2023-03-06T09:26:39.531Z,93943.00
2023-03-06T09:27:27.428Z,93939.00
2023-03-06T09:28:26.400Z,93939.00
2023-03-06T09:35:26.131Z,93939.00
2023-03-06T09:36:26.037Z,93937.00
2023-03-06T09:37:25.982Z,93931.00
2023-03-06T09:38:25.964Z,93933.00
2023-03-06T09:39:26.017Z,93935.00
2023-03-06T09:40:25.871Z,93939.00
2023-03-06T09:41:25.862Z,93933.00
2023-03-06T09:42:25.846Z,93933.00
2023-03-06T09:43:25.801Z,93929.00
2023-03-06T09:44:25.874Z,93931.00
2023-03-06T09:45:25.809Z,93929.00
2023-03-06T09:46:25.796Z,93929.00
2023-03-06T09:47:25.783Z,93925.00
2023-03-06T09:48:25.699Z,93927.00
2023-03-06T09:49:25.712Z,93927.00
2023-03-06T09:50:25.686Z,93929.00
2023-03-06T09:51:25.698Z,93925.00
2023-03-06T09:52:25.701Z,93921.00
2023-03-06T09:53:25.705Z,93927.00
2023-03-06T09:54:25.808Z,93923.00
2023-03-06T09:55:25.771Z,93923.00
2023-03-06T09:56:25.787Z,93917.00
2023-03-06T09:57:25.838Z,93917.00
2023-03-06T09:58:25.848Z,93919.00
2023-03-06T09:59:25.868Z,93919.00
2023-03-06T10:00:25.866Z,93923.00
2023-03-06T10:01:25.833Z,93921.00
2023-03-06T10:02:25.964Z,93919.00
2023-03-06T10:03:25.876Z,93917.00
2023-03-06T10:04:25.813Z,93919.00
2023-03-06T10:05:25.794Z,93915.00
2023-03-06T10:06:25.790Z,93915.00
2023-03-06T10:07:25.846Z,93914.00
2023-03-06T10:08:25.927Z,93912.00
2023-03-06T10:09:25.879Z,93908.00
2023-03-06T10:10:25.932Z,93906.00
2023-03-06T10:11:25.936Z,93906.00
2023-03-06T10:12:25.956Z,93908.00
2023-03-06T10:13:25.979Z,93910.00
2023-03-06T10:14:25.985Z,93912.00
2023-03-06T10:15:26.074Z,93910.00
2023-03-06T10:16:26.016Z,93908.00
2023-03-06T10:17:26.033Z,93910.00
2023-03-06T10:18:26.817Z,93908.00
2023-03-06T10:19:25.996Z,93910.00
2023-03-06T10:20:25.998Z,93908.00
2023-03-06T10:21:26.065Z,93908.00
2023-03-06T10:22:25.943Z,93906.00
2023-03-06T10:23:25.970Z,93906.00
2023-03-06T10:24:25.919Z,93902.00
2023-03-06T10:25:25.878Z,93900.00
2023-03-06T10:26:25.884Z,93896.00
2023-03-06T10:27:25.811Z,93898.00
2023-03-06T10:28:25.781Z,93896.00
2023-03-06T10:29:25.794Z,93894.00
2023-03-06T10:30:26.491Z,93894.00
2023-03-06T10:32:25.827Z,93894.00
2023-03-06T10:33:25.780Z,93894.00
2023-03-06T10:34:25.791Z,93890.00
2023-03-06T10:35:25.851Z,93886.00
2023-03-06T10:47:26.706Z,93869.00
2023-03-06T10:48:25.879Z,93865.00
2023-03-06T10:49:26.328Z,93857.00
2023-03-06T10:50:25.860Z,93855.00
2023-03-06T10:51:25.861Z,93851.00
2023-03-06T10:52:25.829Z,93845.00
2023-03-06T10:53:25.819Z,93841.00
2023-03-06T10:54:26.278Z,93835.00
2023-03-06T10:55:25.824Z,93837.00
2023-03-06T10:56:25.880Z,93837.00
2023-03-06T10:57:25.970Z,93837.00
2023-03-06T10:58:25.956Z,93833.00
2023-03-06T10:59:25.989Z,93831.00
2023-03-06T11:00:26.014Z,93827.00
2023-03-06T11:01:26.027Z,93823.00
2023-03-06T11:02:26.090Z,93818.00
2023-03-06T11:03:26.097Z,93818.00
2023-03-06T11:04:26.134Z,93820.00
2023-03-06T11:05:26.147Z,93816.00
2023-03-06T11:06:26.156Z,93820.00
2023-03-06T11:07:26.197Z,93816.00
2023-03-06T11:08:26.173Z,93814.00
2023-03-06T11:09:26.218Z,93816.00
2023-03-06T11:10:26.192Z,93812.00
2023-03-06T11:14:27.694Z,93806.00
2023-03-06T11:15:26.110Z,93810.00
2023-03-06T11:16:26.169Z,93806.00
2023-03-06T11:17:26.091Z,93806.00
2023-03-06T11:18:26.144Z,93806.00
2023-03-06T11:19:26.032Z,93804.00
2023-03-06T11:20:26.037Z,93794.00
2023-03-06T11:21:25.937Z,93786.00
2023-03-06T11:22:25.951Z,93786.00
2023-03-06T11:23:25.916Z,93786.00
2023-03-06T11:24:25.928Z,93780.00
2023-03-06T11:25:25.865Z,93780.00
2023-03-06T11:26:25.879Z,93778.00
2023-03-06T11:27:25.890Z,93780.00
2023-03-06T11:28:28.817Z,93775.00
2023-03-06T11:29:25.966Z,93771.00
2023-03-06T11:30:25.845Z,93769.00
2023-03-06T11:31:25.891Z,93763.00
2023-03-06T11:32:25.925Z,93765.00
2023-03-06T11:33:25.790Z,93765.00
2023-03-06T11:34:25.814Z,93763.00
2023-03-06T11:35:25.762Z,93765.00
2023-03-06T11:36:25.631Z,93765.00
2023-03-06T11:37:25.555Z,93763.00
2023-03-06T11:38:25.529Z,93761.00
2023-03-06T11:39:25.843Z,93757.00
2023-03-06T11:40:25.459Z,93753.00
2023-03-06T11:41:25.434Z,93751.00
2023-03-06T11:42:25.449Z,93753.00
2023-03-06T11:43:25.358Z,93751.00
2023-03-06T11:44:25.804Z,93751.00
2023-03-06T11:45:25.272Z,93753.00
2023-03-06T11:46:25.376Z,93749.00
2023-03-06T11:47:25.234Z,93747.00
2023-03-06T11:48:25.164Z,93747.00
2023-03-06T11:49:25.313Z,93739.00
2023-03-06T11:50:25.094Z,93735.00
2023-03-06T11:51:24.996Z,93735.00
2023-03-06T11:52:24.946Z,93731.00
2023-03-06T11:53:24.931Z,93731.00
2023-03-06T11:54:24.866Z,93728.00
2023-03-06T11:55:24.854Z,93729.00
2023-03-06T11:56:24.817Z,93728.00
2023-03-06T11:57:24.751Z,93728.00
2023-03-06T11:58:24.691Z,93724.00
2023-03-06T11:59:24.693Z,93722.00
2023-03-06T12:00:24.860Z,93716.00
2023-03-06T12:01:24.636Z,93714.00
2023-03-06T12:02:24.712Z,93710.00
2023-03-06T12:03:24.525Z,93710.00
2023-03-06T12:04:24.482Z,93708.00
2023-03-06T12:05:24.554Z,93708.00
2023-03-06T12:06:24.442Z,93704.00
2023-03-06T12:07:24.413Z,93710.00
2023-03-06T12:08:24.373Z,93706.00
2023-03-06T12:09:24.351Z,93708.00
2023-03-06T12:10:24.808Z,93704.00
2023-03-06T12:11:24.322Z,93704.00
2023-03-06T12:12:24.255Z,93706.00
2023-03-06T12:14:24.156Z,93702.00
2023-03-06T12:15:24.327Z,93700.00
2023-03-06T12:16:24.169Z,93698.00
2023-03-06T12:17:24.074Z,93694.00
2023-03-06T12:18:24.110Z,93694.00
2023-03-06T12:19:23.980Z,93692.00
2023-03-06T12:20:24.321Z,93696.00
2023-03-06T12:21:23.914Z,93696.00
2023-03-06T12:22:23.861Z,93694.00
2023-03-06T12:23:23.914Z,93692.00
2023-03-06T12:24:23.766Z,93690.00
2023-03-06T12:25:23.830Z,93688.00
2023-03-06T12:26:23.729Z,93694.00
2023-03-06T12:27:23.645Z,93694.00
2023-03-06T12:28:23.616Z,93692.00
2023-03-06T12:29:23.558Z,93694.00
2023-03-06T12:30:23.827Z,93698.00
2023-03-06T12:31:23.547Z,93690.00
2023-03-06T12:32:23.482Z,93692.00
2023-03-06T12:34:23.401Z,93688.00
2023-03-06T12:35:23.848Z,93686.00
2023-03-06T12:36:23.415Z,93681.00
2023-03-06T12:37:23.419Z,93686.00
2023-03-06T12:38:23.464Z,93682.00
2023-03-06T12:39:23.429Z,93684.00
2023-03-06T12:40:23.818Z,93679.00
2023-03-06T12:41:23.428Z,93681.00
2023-03-06T12:42:23.922Z,93681.00
2023-03-06T12:43:23.395Z,93679.00
2023-03-06T12:44:23.357Z,93677.00
2023-03-06T12:45:23.316Z,93675.00
2023-03-06T12:46:23.373Z,93673.00
2023-03-06T12:47:23.265Z,93669.00
2023-03-06T12:48:23.273Z,93669.00
2023-03-06T12:49:31.516Z,93669.00
2023-03-06T12:50:24.216Z,93665.00
2023-03-06T12:51:23.154Z,93671.00
2023-03-06T12:52:29.549Z,93667.00
2023-03-06T12:53:24.088Z,93669.00
2023-03-06T12:54:23.031Z,93667.00
2023-03-06T12:55:25.722Z,93665.00
2023-03-06T12:56:22.963Z,93663.00
2023-03-06T12:57:22.926Z,93661.00
2023-03-06T12:58:22.898Z,93657.00
2023-03-06T12:59:22.857Z,93661.00
2023-03-06T13:00:22.839Z,93659.00
2023-03-06T13:01:22.785Z,93655.00
2023-03-06T13:02:22.762Z,93657.00
2023-03-06T13:03:22.726Z,93657.00
2023-03-06T13:04:22.680Z,93653.00
2023-03-06T13:05:22.670Z,93655.00
2023-03-06T13:06:22.621Z,93651.00
2023-03-06T13:07:22.585Z,93651.00
2023-03-06T13:08:22.535Z,93649.00
2023-03-06T13:09:22.485Z,93649.00
2023-03-06T13:10:22.465Z,93645.00
2023-03-06T13:11:22.432Z,93643.00
2023-03-06T13:12:22.399Z,93643.00
2023-03-06T13:13:22.365Z,93643.00
2023-03-06T13:14:22.317Z,93637.00
2023-03-06T13:15:22.271Z,93641.00
2023-03-06T13:16:22.263Z,93641.00
2023-03-06T13:32:21.723Z,93635.00